Skip Navigation Links
NOAA logo - Click to go to the NOAA homepage
NOAA's National Weather Service
Alaska Aviation Weather Unit
  NWS logo - Click to go to the NWS homepage
Left Navbar Graphic     01 AKDT = 09 GMT

   
NOAA is celebrating 200 years of science, service, and stewardship. Visit the NOAA 200th celebration Web site to learn more.
USA.gov is the U.S. Government's official Web portal to all Federal, state and local government Web resources and services.
Facebook
NWS on Facebook

Important Change Regarding the AAWU Web Presence

 

Over the last several months, the AAWU has been working to navigate its webpages to a nationally supported server. Security, as well as other needs, have necessitated the change.  We have been given an extension for the site changeover while we diligently work at addressing feedback received. As of July 14, 2017, aawu.arh.noaa.gov will be discontinued. The new AAWU web address is weather.gov/aawu. It is now live and will run in-parallel with the old site until it is discontinued on July 14, 2017. Please continue to send any feedback or questions regarding the new webpages to nws.ar.aawu.webauthors@noaa.gov.  Thank you for your patience during this time of transition.
AAWU Home :: Display TAF Add Bookmark
METAR PAVC 190356Z AUTO 22008KT 10SM OVC023 12/09 A2983 RMK AO2
 SLP109 T01170094=

METAR PAVC 190456Z AUTO 26005KT 10SM OVC019 11/09 A2982 RMK AO2
 SLP103 T01110094=

METAR PAVC 190556Z AUTO 24004KT 6SM BR OVC013 11/10 A2982 RMK AO2
 SLP102 T01060100 10128 20106 58007=

SPECI PAVC 190638Z AUTO 00000KT 4SM -RA BR OVC009 11/10 A2982 RMK
 AO2 RAB0558 CIG 007V011 P0000=

METAR PAVC 190656Z AUTO 00000KT 5SM -RA BR OVC007 11/10 A2982 RMK
 AO2 RAB0558 SLP105 P0000 T01060100=

SPECI PAVC 190726Z AUTO 00000KT 5SM -RA BR OVC005 10/10 A2982 RMK
 AO2 P0001=

METAR PAVC 190756Z AUTO 07003KT 6SM BR BKN005 OVC012 10/10 A2981 RMK
 AO2 RAE56 CIG 004V008 SLP102 P0001 T01000100=

SPECI PAVC 190811Z AUTO 09003KT 7SM SCT005 OVC012 10/10 A2981 RMK
 AO2=

SPECI PAVC 190840Z AUTO 05005KT 8SM BKN004 BKN007 OVC018 10/10 A2981
 RMK AO2 CIG 001V006=

METAR PAVC 190856Z AUTO 05006KT 8SM OVC004 10/10 A2981 RMK AO2 CIG
 001V008 SLP101 60001 T01000100 401330100 58001=

SPECI PAVC 190905Z AUTO 05006KT 10SM OVC006 10/10 A2981 RMK AO2 CIG
 003V011=


NOAA's National Weather Service
Alaska Aviation Weather Unit
6930 Sand Lake Road
Anchorage, AK 99502-1845
Disclaimer
Credits
Glossary
Privacy Policy
About Us
Career Opportunities
Contact AAWU Internet Services Site last modified: April, 17th 2012